Preview of NWS' New Version of Forecast
This preview is not operational and should not be used for support decisions.

Terminal Aerodrome Forecast (TAF)

Issued by National Weather Service (NWS)

                            
000
FTUS42 KKEY 201235 AAA
TAFEYW
TAF AMD
KEYW 201235Z 2013/2112 26015G22KT P6SM VCSH BKN025 BKN040
      TEMPO 2013/2015 3SM SHRA BKN015 OVC040
     FM201500 32018G28KT 4SM SHRA BKN015 OVC025
     FM201800 33017G27KT P6SM BKN017 OVC030=